sensor_id;sensor_type;location;lat;lon;timestamp;pressure;altitude;pressure_sealevel;temperature;humidity
17525;BME280;40431;52.198;9.902;2022-07-12T00:02:22;101504.69;;;16.09;100.00
17525;BME280;40431;52.198;9.902;2022-07-12T00:04:48;101506.88;;;16.04;100.00
17525;BME280;40431;52.198;9.902;2022-07-12T00:07:14;101505.34;;;16.00;100.00
17525;BME280;40431;52.198;9.902;2022-07-12T00:09:41;101501.06;;;15.96;100.00
17525;BME280;40431;52.198;9.902;2022-07-12T00:12:10;101512.75;;;15.98;100.00
17525;BME280;40431;52.198;9.902;2022-07-12T00:14:36;101516.69;;;15.94;100.00
17525;BME280;40431;52.198;9.902;2022-07-12T00:17:03;101509.44;;;15.93;100.00
17525;BME280;40431;52.198;9.902;2022-07-12T00:19:30;101515.03;;;15.91;100.00
17525;BME280;40431;52.198;9.902;2022-07-12T00:21:57;101522.38;;;15.91;100.00
17525;BME280;40431;52.198;9.902;2022-07-12T00:24:23;101515.59;;;15.83;100.00
17525;BME280;40431;52.198;9.902;2022-07-12T00:26:50;101520.44;;;15.78;100.00
17525;BME280;40431;52.198;9.902;2022-07-12T00:29:20;101524.91;;;15.79;100.00
17525;BME280;40431;52.198;9.902;2022-07-12T00:31:47;101512.25;;;15.78;100.00
17525;BME280;40431;52.198;9.902;2022-07-12T00:34:13;101514.88;;;15.80;100.00
17525;BME280;40431;52.198;9.902;2022-07-12T00:36:40;101517.59;;;15.80;100.00
17525;BME280;40431;52.198;9.902;2022-07-12T00:39:06;101513.97;;;15.79;100.00
17525;BME280;40431;52.198;9.902;2022-07-12T00:41:32;101513.97;;;15.79;100.00
17525;BME280;40431;52.198;9.902;2022-07-12T00:43:59;101515.78;;;15.80;100.00
17525;BME280;40431;52.198;9.902;2022-07-12T00:46:26;101520.94;;;15.85;100.00
17525;BME280;40431;52.198;9.902;2022-07-12T00:48:53;101520.84;;;15.86;100.00
17525;BME280;40431;52.198;9.902;2022-07-12T00:51:21;101518.84;;;15.89;100.00
17525;BME280;40431;52.198;9.902;2022-07-12T00:53:48;101518.09;;;15.86;100.00
17525;BME280;40431;52.198;9.902;2022-07-12T00:56:16;101520.63;;;15.90;100.00
17525;BME280;40431;52.198;9.902;2022-07-12T00:58:43;101518.84;;;15.89;100.00
17525;BME280;40431;52.198;9.902;2022-07-12T01:01:10;101512.84;;;15.83;100.00
17525;BME280;40431;52.198;9.902;2022-07-12T01:03:38;101507.38;;;15.83;100.00
17525;BME280;40431;52.198;9.902;2022-07-12T01:06:06;101504.66;;;15.83;100.00
17525;BME280;40431;52.198;9.902;2022-07-12T01:08:33;101507.38;;;15.83;100.00
17525;BME280;40431;52.198;9.902;2022-07-12T01:11:00;101505.50;;;15.84;100.00
17525;BME280;40431;52.198;9.902;2022-07-12T01:13:26;101508.13;;;15.85;100.00
17525;BME280;40431;52.198;9.902;2022-07-12T01:15:53;101504.44;;;15.86;100.00
17525;BME280;40431;52.198;9.902;2022-07-12T01:18:20;101505.19;;;15.89;100.00
17525;BME280;40431;52.198;9.902;2022-07-12T01:20:48;101501.56;;;15.88;100.00
17525;BME280;40431;52.198;9.902;2022-07-12T01:23:16;101499.72;;;15.89;100.00
17525;BME280;40431;52.198;9.902;2022-07-12T01:25:43;101504.19;;;15.90;100.00
17525;BME280;40431;52.198;9.902;2022-07-12T01:28:09;101497.88;;;15.89;100.00
17525;BME280;40431;52.198;9.902;2022-07-12T01:30:36;101496.97;;;15.89;100.00
17525;BME280;40431;52.198;9.902;2022-07-12T01:33:04;101501.34;;;15.91;100.00
17525;BME280;40431;52.198;9.902;2022-07-12T01:35:30;101496.69;;;15.93;100.00
17525;BME280;40431;52.198;9.902;2022-07-12T01:37:58;101493.81;;;15.95;100.00
17525;BME280;40431;52.198;9.902;2022-07-12T01:40:25;101495.69;;;15.94;100.00
17525;BME280;40431;52.198;9.902;2022-07-12T01:42:52;101499.19;;;15.96;100.00
17525;BME280;40431;52.198;9.902;2022-07-12T01:45:21;101495.59;;;15.96;100.00
17525;BME280;40431;52.198;9.902;2022-07-12T01:47:47;101503.91;;;15.94;100.00
17525;BME280;40431;52.198;9.902;2022-07-12T01:50:14;101502.44;;;15.89;100.00
17525;BME280;40431;52.198;9.902;2022-07-12T01:52:41;101500.03;;;15.84;100.00
17525;BME280;40431;52.198;9.902;2022-07-12T01:55:09;101491.72;;;15.85;100.00
17525;BME280;40431;52.198;9.902;2022-07-12T01:57:37;101488.25;;;15.83;100.00
17525;BME280;40431;52.198;9.902;2022-07-12T02:00:06;101489.22;;;15.82;100.00
17525;BME280;40431;52.198;9.902;2022-07-12T02:02:33;101481.38;;;15.76;100.00
17525;BME280;40431;52.198;9.902;2022-07-12T02:05:00;101484.34;;;15.73;100.00
17525;BME280;40431;52.198;9.902;2022-07-12T02:07:27;101483.44;;;15.73;100.00
17525;BME280;40431;52.198;9.902;2022-07-12T02:09:54;101479.84;;;15.72;100.00
17525;BME280;40431;52.198;9.902;2022-07-12T02:12:20;101474.59;;;15.69;100.00
17525;BME280;40431;52.198;9.902;2022-07-12T02:14:49;101477.41;;;15.67;100.00
17525;BME280;40431;52.198;9.902;2022-07-12T02:17:15;101480.13;;;15.67;100.00
17525;BME280;40431;52.198;9.902;2022-07-12T02:19:42;101473.69;;;15.68;100.00
17525;BME280;40431;52.198;9.902;2022-07-12T02:22:08;101477.91;;;15.74;100.00
17525;BME280;40431;52.198;9.902;2022-07-12T02:24:35;101478.09;;;15.71;100.00
17525;BME280;40431;52.198;9.902;2022-07-12T02:27:01;101472.63;;;15.71;100.00
17525;BME280;40431;52.198;9.902;2022-07-12T02:29:28;101478.88;;;15.73;100.00
17525;BME280;40431;52.198;9.902;2022-07-12T02:31:55;101475.47;;;15.69;100.00
17525;BME280;40431;52.198;9.902;2022-07-12T02:34:22;101471.06;;;15.67;100.00
17525;BME280;40431;52.198;9.902;2022-07-12T02:36:48;101474.59;;;15.69;100.00
17525;BME280;40431;52.198;9.902;2022-07-12T02:39:15;101489.13;;;15.69;100.00
17525;BME280;40431;52.198;9.902;2022-07-12T02:41:41;101480.06;;;15.69;100.00
17525;BME280;40431;52.198;9.902;2022-07-12T02:44:07;101489.25;;;15.68;100.00
17525;BME280;40431;52.198;9.902;2022-07-12T02:46:34;101487.47;;;15.67;100.00
17525;BME280;40431;52.198;9.902;2022-07-12T02:49:02;101483.66;;;15.69;100.00
17525;BME280;40431;52.198;9.902;2022-07-12T02:51:28;101481.25;;;15.65;100.00
17525;BME280;40431;52.198;9.902;2022-07-12T02:53:55;101485.59;;;15.55;100.00
17525;BME280;40431;52.198;9.902;2022-07-12T02:56:21;101490.25;;;15.52;100.00
17525;BME280;40431;52.198;9.902;2022-07-12T02:58:48;101491.16;;;15.53;100.00
17525;BME280;40431;52.198;9.902;2022-07-12T03:01:14;101491.81;;;15.57;100.00
17525;BME280;40431;52.198;9.902;2022-07-12T03:03:41;101491.81;;;15.57;100.00
17525;BME280;40431;52.198;9.902;2022-07-12T03:06:09;101498.16;;;15.57;100.00
17525;BME280;40431;52.198;9.902;2022-07-12T03:08:36;101509.00;;;15.59;100.00
17525;BME280;40431;52.198;9.902;2022-07-12T03:11:03;101511.50;;;15.62;100.00
17525;BME280;40431;52.198;9.902;2022-07-12T03:13:29;101516.97;;;15.62;100.00
17525;BME280;40431;52.198;9.902;2022-07-12T03:15:55;101522.44;;;15.62;100.00
17525;BME280;40431;52.198;9.902;2022-07-12T03:18:22;101525.28;;;15.60;100.00
17525;BME280;40431;52.198;9.902;2022-07-12T03:20:48;101530.66;;;15.62;100.00
17525;BME280;40431;52.198;9.902;2022-07-12T03:23:16;101539.06;;;15.59;100.00
17525;BME280;40431;52.198;9.902;2022-07-12T03:25:42;101532.63;;;15.60;100.00
17525;BME280;40431;52.198;9.902;2022-07-12T03:28:09;101534.16;;;15.64;100.00
17525;BME280;40431;52.198;9.902;2022-07-12T03:30:36;101553.50;;;15.61;100.00
17525;BME280;40431;52.198;9.902;2022-07-12T03:33:02;101541.59;;;15.62;100.00
17525;BME280;40431;52.198;9.902;2022-07-12T03:35:29;101538.66;;;15.65;100.00
17525;BME280;40431;52.198;9.902;2022-07-12T03:37:55;101537.56;;;15.67;100.00
17525;BME280;40431;52.198;9.902;2022-07-12T03:40:23;101543.69;;;15.71;100.00
17525;BME280;40431;52.198;9.902;2022-07-12T03:42:51;101544.50;;;15.73;100.00
17525;BME280;40431;52.198;9.902;2022-07-12T03:45:18;101549.16;;;15.71;100.00
17525;BME280;40431;52.198;9.902;2022-07-12T03:47:44;101561.88;;;15.72;100.00
17525;BME280;40431;52.198;9.902;2022-07-12T03:50:13;101567.72;;;15.66;100.00
17525;BME280;40431;52.198;9.902;2022-07-12T03:52:40;101569.25;;;15.57;100.00
17525;BME280;40431;52.198;9.902;2022-07-12T03:55:08;101566.78;;;15.52;100.00
17525;BME280;40431;52.198;9.902;2022-07-12T03:57:36;101565.47;;;15.45;100.00
17525;BME280;40431;52.198;9.902;2022-07-12T04:00:04;101571.69;;;15.47;100.00
17525;BME280;40431;52.198;9.902;2022-07-12T04:02:31;101568.09;;;15.47;100.00
17525;BME280;40431;52.198;9.902;2022-07-12T04:04:58;101574.25;;;15.50;100.00
17525;BME280;40431;52.198;9.902;2022-07-12T04:07:24;101577.53;;;15.56;100.00
17525;BME280;40431;52.198;9.902;2022-07-12T04:09:50;101574.50;;;15.60;100.00
17525;BME280;40431;52.198;9.902;2022-07-12T04:12:17;101583.38;;;15.64;100.00
17525;BME280;40431;52.198;9.902;2022-07-12T04:14:44;101572.00;;;15.70;100.00
17525;BME280;40431;52.198;9.902;2022-07-12T04:17:11;101574.56;;;15.73;100.00
17525;BME280;40431;52.198;9.902;2022-07-12T04:19:37;101575.44;;;15.74;100.00
17525;BME280;40431;52.198;9.902;2022-07-12T04:22:03;101572.59;;;15.75;100.00
17525;BME280;40431;52.198;9.902;2022-07-12T04:24:30;101577.69;;;15.81;100.00
17525;BME280;40431;52.198;9.902;2022-07-12T04:26:56;101580.22;;;15.84;100.00
17525;BME280;40431;52.198;9.902;2022-07-12T04:29:22;101571.03;;;15.85;100.00
17525;BME280;40431;52.198;9.902;2022-07-12T04:31:50;101571.81;;;15.88;100.00
17525;BME280;40431;52.198;9.902;2022-07-12T04:34:16;101572.56;;;15.90;100.00
17525;BME280;40431;52.198;9.902;2022-07-12T04:36:43;101574.22;;;15.92;100.00
17525;BME280;40431;52.198;9.902;2022-07-12T04:39:10;101575.31;;;15.90;100.00
17525;BME280;40431;52.198;9.902;2022-07-12T04:41:36;101573.56;;;15.89;100.00
17525;BME280;40431;52.198;9.902;2022-07-12T04:44:03;101581.56;;;15.92;100.00
17525;BME280;40431;52.198;9.902;2022-07-12T04:46:29;101593.28;;;15.94;100.00
17525;BME280;40431;52.198;9.902;2022-07-12T04:48:57;101586.03;;;15.93;100.00
17525;BME280;40431;52.198;9.902;2022-07-12T04:51:24;101589.34;;;15.98;100.00
17525;BME280;40431;52.198;9.902;2022-07-12T04:53:50;101594.63;;;16.01;100.00
17525;BME280;40431;52.198;9.902;2022-07-12T04:56:19;101605.56;;;16.01;100.00
17525;BME280;40431;52.198;9.902;2022-07-12T04:58:45;101602.84;;;16.01;100.00
17525;BME280;40431;52.198;9.902;2022-07-12T05:01:12;101604.28;;;16.07;100.00
17525;BME280;40431;52.198;9.902;2022-07-12T05:03:39;101601.22;;;16.11;100.00
17525;BME280;40431;52.198;9.902;2022-07-12T05:06:06;101594.34;;;16.18;100.00
17525;BME280;40431;52.198;9.902;2022-07-12T05:08:33;101602.16;;;16.25;100.00
17525;BME280;40431;52.198;9.902;2022-07-12T05:10:59;101601.94;;;16.28;100.00
17525;BME280;40431;52.198;9.902;2022-07-12T05:13:25;101604.22;;;16.34;100.00
17525;BME280;40431;52.198;9.902;2022-07-12T05:15:52;101596.81;;;16.36;100.00
17525;BME280;40431;52.198;9.902;2022-07-12T05:18:18;101605.47;;;16.43;100.00
17525;BME280;40431;52.198;9.902;2022-07-12T05:20:45;101601.63;;;16.45;100.00
17525;BME280;40431;52.198;9.902;2022-07-12T05:23:13;101604.25;;;16.47;100.00
17525;BME280;40431;52.198;9.902;2022-07-12T05:25:39;101602.88;;;16.54;100.00
17525;BME280;40431;52.198;9.902;2022-07-12T05:28:06;101602.75;;;16.56;100.00
17525;BME280;40431;52.198;9.902;2022-07-12T05:30:32;101604.97;;;16.63;100.00
17525;BME280;40431;52.198;9.902;2022-07-12T05:32:59;101608.34;;;16.67;100.00
17525;BME280;40431;52.198;9.902;2022-07-12T05:35:25;101609.69;;;16.74;100.00
17525;BME280;40431;52.198;9.902;2022-07-12T05:37:52;101606.72;;;16.77;100.00
17525;BME280;40431;52.198;9.902;2022-07-12T05:40:19;101612.19;;;16.77;100.00
17525;BME280;40431;52.198;9.902;2022-07-12T05:42:46;101619.09;;;16.83;100.00
17525;BME280;40431;52.198;9.902;2022-07-12T05:45:12;101613.50;;;16.84;100.00
17525;BME280;40431;52.198;9.902;2022-07-12T05:47:39;101611.03;;;16.94;100.00
17525;BME280;40431;52.198;9.902;2022-07-12T05:50:06;101607.75;;;17.02;100.00
17525;BME280;40431;52.198;9.902;2022-07-12T05:52:32;101620.03;;;17.09;100.00
17525;BME280;40431;52.198;9.902;2022-07-12T05:55:16;101614.09;;;17.15;100.00
17525;BME280;40431;52.198;9.902;2022-07-12T05:57:44;101614.31;;;17.12;100.00
17525;BME280;40431;52.198;9.902;2022-07-12T06:00:11;101607.53;;;17.05;100.00
17525;BME280;40431;52.198;9.902;2022-07-12T06:02:38;101612.13;;;17.17;100.00
17525;BME280;40431;52.198;9.902;2022-07-12T06:05:05;101609.72;;;17.26;100.00
17525;BME280;40431;52.198;9.902;2022-07-12T06:07:32;101602.78;;;17.33;100.00
17525;BME280;40431;52.198;9.902;2022-07-12T06:09:59;101607.06;;;17.37;98.71
17525;BME280;40431;52.198;9.902;2022-07-12T06:12:25;101602.66;;;17.34;97.68
17525;BME280;40431;52.198;9.902;2022-07-12T06:14:53;101605.84;;;17.41;97.96
17525;BME280;40431;52.198;9.902;2022-07-12T06:17:19;101597.38;;;17.44;97.25
17525;BME280;40431;52.198;9.902;2022-07-12T06:19:47;101596.94;;;17.50;96.19
17525;BME280;40431;52.198;9.902;2022-07-12T06:22:14;101590.47;;;17.51;93.59
17525;BME280;40431;52.198;9.902;2022-07-12T06:24:40;101595.97;;;17.51;93.31
17525;BME280;40431;52.198;9.902;2022-07-12T06:27:07;101591.44;;;17.50;92.90
17525;BME280;40431;52.198;9.902;2022-07-12T06:29:33;101587.72;;;17.51;93.32
17525;BME280;40431;52.198;9.902;2022-07-12T06:32:01;101588.72;;;17.50;93.83
17525;BME280;40431;52.198;9.902;2022-07-12T06:34:27;101595.72;;;17.55;90.89
17525;BME280;40431;52.198;9.902;2022-07-12T06:36:54;101596.69;;;17.66;88.85
17525;BME280;40431;52.198;9.902;2022-07-12T06:39:20;101589.41;;;17.78;87.28
17525;BME280;40431;52.198;9.902;2022-07-12T06:41:46;101589.28;;;17.93;88.54
17525;BME280;40431;52.198;9.902;2022-07-12T06:44:13;101593.59;;;18.08;88.69
17525;BME280;40431;52.198;9.902;2022-07-12T06:46:40;101597.38;;;18.18;87.24
17525;BME280;40431;52.198;9.902;2022-07-12T06:49:08;101602.63;;;18.22;86.91
17525;BME280;40431;52.198;9.902;2022-07-12T06:51:34;101594.91;;;18.27;86.14
17525;BME280;40431;52.198;9.902;2022-07-12T06:54:03;101594.69;;;18.30;85.92
17525;BME280;40431;52.198;9.902;2022-07-12T06:56:30;101602.34;;;18.38;86.19
17525;BME280;40431;52.198;9.902;2022-07-12T06:58:57;101606.72;;;18.40;85.85
17525;BME280;40431;52.198;9.902;2022-07-12T07:01:23;101605.94;;;18.38;83.96
17525;BME280;40431;52.198;9.902;2022-07-12T07:03:49;101605.16;;;18.36;82.19
17525;BME280;40431;52.198;9.902;2022-07-12T07:06:17;101607.06;;;18.35;83.53
17525;BME280;40431;52.198;9.902;2022-07-12T07:08:43;101600.69;;;18.35;81.99
17525;BME280;40431;52.198;9.902;2022-07-12T07:11:10;101597.19;;;18.33;81.26
17525;BME280;40431;52.198;9.902;2022-07-12T07:13:36;101605.41;;;18.33;80.16
17525;BME280;40431;52.198;9.902;2022-07-12T07:16:03;101611.28;;;18.28;80.33
17525;BME280;40431;52.198;9.902;2022-07-12T07:18:29;101612.13;;;18.29;79.86
17525;BME280;40431;52.198;9.902;2022-07-12T07:20:56;101606.31;;;18.33;80.49
17525;BME280;40431;52.198;9.902;2022-07-12T07:23:23;101604.94;;;18.39;80.84
17525;BME280;40431;52.198;9.902;2022-07-12T07:25:50;101603.25;;;18.49;77.42
17525;BME280;40431;52.198;9.902;2022-07-12T07:28:16;101603.00;;;18.64;77.23
17525;BME280;40431;52.198;9.902;2022-07-12T07:30:43;101599.31;;;18.76;76.85
17525;BME280;40431;52.198;9.902;2022-07-12T07:33:17;101603.72;;;18.90;76.58
17525;BME280;40431;52.198;9.902;2022-07-12T07:35:44;101600.38;;;18.98;75.68
17525;BME280;40431;52.198;9.902;2022-07-12T07:38:10;101601.25;;;19.21;75.00
17525;BME280;40431;52.198;9.902;2022-07-12T07:40:38;101598.38;;;19.34;75.70
17525;BME280;40431;52.198;9.902;2022-07-12T07:43:04;101592.91;;;19.45;74.87
17525;BME280;40431;52.198;9.902;2022-07-12T07:45:31;101598.63;;;19.53;75.22
17525;BME280;40431;52.198;9.902;2022-07-12T07:47:57;101599.50;;;19.54;74.86
17525;BME280;40431;52.198;9.902;2022-07-12T07:50:24;101598.03;;;19.39;74.52
17525;BME280;40431;52.198;9.902;2022-07-12T07:52:50;101607.28;;;19.15;74.53
17525;BME280;40431;52.198;9.902;2022-07-12T07:55:17;101605.13;;;19.07;74.87
17525;BME280;40431;52.198;9.902;2022-07-12T07:57:45;101603.38;;;19.06;75.24
17525;BME280;40431;52.198;9.902;2022-07-12T08:00:12;101603.06;;;18.86;74.87
17525;BME280;40431;52.198;9.902;2022-07-12T08:02:39;101605.72;;;18.88;73.96
17525;BME280;40431;52.198;9.902;2022-07-12T08:05:06;101600.63;;;18.95;74.35
17525;BME280;40431;52.198;9.902;2022-07-12T08:07:33;101597.66;;;19.09;73.36
17525;BME280;40431;52.198;9.902;2022-07-12T08:09:59;101600.91;;;19.26;73.86
17525;BME280;40431;52.198;9.902;2022-07-12T08:12:25;101593.13;;;19.53;76.01
17525;BME280;40431;52.198;9.902;2022-07-12T08:14:53;101590.06;;;19.79;73.62
17525;BME280;40431;52.198;9.902;2022-07-12T08:17:20;101595.81;;;19.99;72.34
17525;BME280;40431;52.198;9.902;2022-07-12T08:19:46;101587.25;;;20.13;73.74
17525;BME280;40431;52.198;9.902;2022-07-12T08:22:12;101586.13;;;20.16;70.43
17525;BME280;40431;52.198;9.902;2022-07-12T08:24:39;101594.03;;;20.09;69.93
17525;BME280;40431;52.198;9.902;2022-07-12T08:27:05;101593.97;;;20.21;72.53
17525;BME280;40431;52.198;9.902;2022-07-12T08:29:31;101585.47;;;20.45;73.39
17525;BME280;40431;52.198;9.902;2022-07-12T08:31:59;101583.00;;;20.63;71.83
17525;BME280;40431;52.198;9.902;2022-07-12T08:34:25;101573.25;;;20.59;69.86
17525;BME280;40431;52.198;9.902;2022-07-12T08:36:52;101578.97;;;20.67;70.94
17525;BME280;40431;52.198;9.902;2022-07-12T08:39:18;101583.16;;;20.82;69.37
17525;BME280;40431;52.198;9.902;2022-07-12T08:41:45;101575.84;;;20.72;68.80
17525;BME280;40431;52.198;9.902;2022-07-12T08:44:11;101582.66;;;20.56;68.61
17525;BME280;40431;52.198;9.902;2022-07-12T08:46:37;101585.38;;;20.67;69.74
17525;BME280;40431;52.198;9.902;2022-07-12T08:49:06;101585.66;;;20.85;69.44
17525;BME280;40431;52.198;9.902;2022-07-12T08:51:33;101580.06;;;20.97;67.33
17525;BME280;40431;52.198;9.902;2022-07-12T08:54:07;101584.47;;;21.09;67.29
17525;BME280;40431;52.198;9.902;2022-07-12T08:56:35;101581.16;;;21.15;65.33
17525;BME280;40431;52.198;9.902;2022-07-12T08:59:10;101575.84;;;21.24;65.62
17525;BME280;40431;52.198;9.902;2022-07-12T09:01:40;101578.75;;;21.32;65.61
17525;BME280;40431;52.198;9.902;2022-07-12T09:04:13;101578.22;;;21.38;64.67
17525;BME280;40431;52.198;9.902;2022-07-12T09:06:40;101575.09;;;21.22;63.66
17525;BME280;40431;52.198;9.902;2022-07-12T09:09:07;101581.03;;;21.17;65.00
17525;BME280;40431;52.198;9.902;2022-07-12T09:11:35;101580.78;;;21.30;64.65
17525;BME280;40431;52.198;9.902;2022-07-12T09:14:02;101576.97;;;21.21;64.01
17525;BME280;40431;52.198;9.902;2022-07-12T09:16:29;101576.34;;;21.08;65.53
17525;BME280;40431;52.198;9.902;2022-07-12T09:19:12;101570.50;;;21.01;65.49
17525;BME280;40431;52.198;9.902;2022-07-12T09:21:46;101574.06;;;21.13;66.09
17525;BME280;40431;52.198;9.902;2022-07-12T09:24:13;101573.22;;;21.22;64.64
17525;BME280;40431;52.198;9.902;2022-07-12T09:26:39;101576.44;;;21.27;64.81
17525;BME280;40431;52.198;9.902;2022-07-12T09:29:06;101579.38;;;21.35;63.90
17525;BME280;40431;52.198;9.902;2022-07-12T09:31:38;101582.66;;;21.29;65.23
17525;BME280;40431;52.198;9.902;2022-07-12T09:34:05;101584.09;;;21.24;65.09
17525;BME280;40431;52.198;9.902;2022-07-12T09:36:57;101582.69;;;21.39;64.98
17525;BME280;40431;52.198;9.902;2022-07-12T09:39:24;101577.94;;;21.41;63.04
17525;BME280;40431;52.198;9.902;2022-07-12T09:41:53;101570.41;;;21.53;62.77
17525;BME280;40431;52.198;9.902;2022-07-12T09:44:20;101560.88;;;21.57;62.50
17525;BME280;40431;52.198;9.902;2022-07-12T09:46:47;101555.97;;;21.71;64.93
17525;BME280;40431;52.198;9.902;2022-07-12T09:49:13;101561.81;;;21.97;63.79
17525;BME280;40431;52.198;9.902;2022-07-12T09:51:42;101561.53;;;22.10;61.01
17525;BME280;40431;52.198;9.902;2022-07-12T09:54:14;101561.81;;;22.26;61.37
17525;BME280;40431;52.198;9.902;2022-07-12T09:56:52;101573.44;;;22.10;61.01
17525;BME280;40431;52.198;9.902;2022-07-12T09:59:22;101561.66;;;21.98;61.20
17525;BME280;40431;52.198;9.902;2022-07-12T10:01:50;101552.22;;;22.21;62.30
17525;BME280;40431;52.198;9.902;2022-07-12T10:04:20;101551.34;;;22.30;59.89
17525;BME280;40431;52.198;9.902;2022-07-12T10:06:46;101546.72;;;22.50;60.48
17525;BME280;40431;52.198;9.902;2022-07-12T10:09:15;101557.16;;;22.66;59.74
17525;BME280;40431;52.198;9.902;2022-07-12T10:11:41;101558.75;;;22.68;61.77
17525;BME280;40431;52.198;9.902;2022-07-12T10:14:10;101561.63;;;22.77;59.83
17525;BME280;40431;52.198;9.902;2022-07-12T10:16:38;101557.13;;;22.76;59.73
17525;BME280;40431;52.198;9.902;2022-07-12T10:19:23;101554.19;;;22.87;58.26
17525;BME280;40431;52.198;9.902;2022-07-12T10:21:52;101549.63;;;22.96;58.54
17525;BME280;40431;52.198;9.902;2022-07-12T10:24:49;101540.75;;;23.02;56.70
17525;BME280;40431;52.198;9.902;2022-07-12T10:27:29;101554.69;;;23.20;55.00
17525;BME280;40431;52.198;9.902;2022-07-12T10:30:13;101551.97;;;23.38;54.43
17525;BME280;40431;52.198;9.902;2022-07-12T10:32:42;101553.28;;;23.62;54.95
17525;BME280;40431;52.198;9.902;2022-07-12T10:35:12;101550.13;;;23.57;54.36
17525;BME280;40431;52.198;9.902;2022-07-12T10:37:39;101556.91;;;23.62;56.13
17525;BME280;40431;52.198;9.902;2022-07-12T10:40:14;101550.53;;;23.62;54.17
17525;BME280;40431;52.198;9.902;2022-07-12T10:42:40;101546.63;;;23.55;52.77
17525;BME280;40431;52.198;9.902;2022-07-12T10:45:15;101541.91;;;23.65;52.69
17525;BME280;40431;52.198;9.902;2022-07-12T10:47:54;101531.88;;;23.82;54.49
17525;BME280;40431;52.198;9.902;2022-07-12T10:50:51;101536.19;;;23.94;52.55
17525;BME280;40431;52.198;9.902;2022-07-12T10:53:29;101535.47;;;24.10;53.05
17525;BME280;40431;52.198;9.902;2022-07-12T10:56:16;101525.50;;;24.17;52.30
17525;BME280;40431;52.198;9.902;2022-07-12T10:58:46;101528.34;;;24.26;52.42
17525;BME280;40431;52.198;9.902;2022-07-12T11:01:14;101518.72;;;24.38;53.26
17525;BME280;40431;52.198;9.902;2022-07-12T11:03:42;101522.41;;;24.39;53.65
17525;BME280;40431;52.198;9.902;2022-07-12T11:06:11;101526.75;;;24.41;52.34
17525;BME280;40431;52.198;9.902;2022-07-12T11:08:53;101515.66;;;24.41;52.18
17525;BME280;40431;52.198;9.902;2022-07-12T11:11:23;101505.69;;;24.57;53.92
17525;BME280;40431;52.198;9.902;2022-07-12T11:13:50;101492.41;;;24.60;52.82
17525;BME280;40431;52.198;9.902;2022-07-12T11:16:16;101494.56;;;24.48;51.60
17525;BME280;40431;52.198;9.902;2022-07-12T11:18:44;101490.94;;;24.48;51.76
17525;BME280;40431;52.198;9.902;2022-07-12T11:21:10;101487.72;;;24.61;52.14
17525;BME280;40431;52.198;9.902;2022-07-12T11:23:38;101488.50;;;24.71;53.44
17525;BME280;40431;52.198;9.902;2022-07-12T11:26:06;101488.81;;;24.94;51.11
17525;BME280;40431;52.198;9.902;2022-07-12T11:28:34;101482.94;;;24.97;50.37
17525;BME280;40431;52.198;9.902;2022-07-12T11:31:02;101485.94;;;25.12;51.09
17525;BME280;40431;52.198;9.902;2022-07-12T11:33:30;101488.28;;;25.33;50.47
17525;BME280;40431;52.198;9.902;2022-07-12T11:35:59;101489.06;;;25.52;49.76
17525;BME280;40431;52.198;9.902;2022-07-12T11:38:26;101496.38;;;25.61;47.98
17525;BME280;40431;52.198;9.902;2022-07-12T11:40:57;101490.25;;;25.49;47.15
17525;BME280;40431;52.198;9.902;2022-07-12T11:43:24;101485.75;;;25.48;47.35
17525;BME280;40431;52.198;9.902;2022-07-12T11:45:52;101478.31;;;25.57;45.11
17525;BME280;40431;52.198;9.902;2022-07-12T11:48:19;101476.91;;;25.53;44.79
17525;BME280;40431;52.198;9.902;2022-07-12T11:50:46;101479.88;;;25.52;44.90
17525;BME280;40431;52.198;9.902;2022-07-12T11:53:15;101478.31;;;25.49;44.36
17525;BME280;40431;52.198;9.902;2022-07-12T11:55:43;101477.09;;;25.60;45.23
17525;BME280;40431;52.198;9.902;2022-07-12T11:58:10;101472.28;;;25.70;46.12
17525;BME280;40431;52.198;9.902;2022-07-12T12:00:36;101484.41;;;25.77;45.00
17525;BME280;40431;52.198;9.902;2022-07-12T12:03:05;101463.09;;;25.86;44.67
17525;BME280;40431;52.198;9.902;2022-07-12T12:05:32;101461.34;;;25.93;45.15
17525;BME280;40431;52.198;9.902;2022-07-12T12:07:59;101454.22;;;25.99;46.26
17525;BME280;40431;52.198;9.902;2022-07-12T12:10:26;101454.59;;;26.04;44.17
17525;BME280;40431;52.198;9.902;2022-07-12T12:12:53;101459.28;;;25.95;44.48
17525;BME280;40431;52.198;9.902;2022-07-12T12:15:22;101459.41;;;25.94;43.85
17525;BME280;40431;52.198;9.902;2022-07-12T12:17:52;101453.69;;;25.87;44.50
17525;BME280;40431;52.198;9.902;2022-07-12T12:20:22;101459.59;;;26.00;44.42
17525;BME280;40431;52.198;9.902;2022-07-12T12:22:50;101449.03;;;25.88;43.94
17525;BME280;40431;52.198;9.902;2022-07-12T12:25:16;101445.41;;;26.04;44.63
17525;BME280;40431;52.198;9.902;2022-07-12T12:27:44;101453.53;;;26.22;45.10
17525;BME280;40431;52.198;9.902;2022-07-12T12:30:11;101458.72;;;26.41;44.36
17525;BME280;40431;52.198;9.902;2022-07-12T12:32:45;101448.28;;;26.52;45.69
17525;BME280;40431;52.198;9.902;2022-07-12T12:35:13;101446.56;;;26.50;45.14
17525;BME280;40431;52.198;9.902;2022-07-12T12:37:48;101448.09;;;26.61;44.26
17525;BME280;40431;52.198;9.902;2022-07-12T12:40:18;101445.63;;;26.66;45.12
17525;BME280;40431;52.198;9.902;2022-07-12T12:42:45;101450.31;;;26.82;44.68
17525;BME280;40431;52.198;9.902;2022-07-12T12:45:17;101444.22;;;26.79;44.86
17525;BME280;40431;52.198;9.902;2022-07-12T12:47:59;101440.22;;;26.81;44.81
17525;BME280;40431;52.198;9.902;2022-07-12T12:50:39;101447.34;;;26.84;45.13